sensor_id;sensor_type;location;lat;lon;timestamp;temperature;humidity
20744;DHT22;56303;52.160;-0.428;2023-03-13T00:01:00;12.90;99.90
20744;DHT22;56303;52.160;-0.428;2023-03-13T00:03:27;12.80;99.90
20744;DHT22;56303;52.160;-0.428;2023-03-13T00:05:55;12.80;99.90
20744;DHT22;56303;52.160;-0.428;2023-03-13T00:08:24;12.90;99.90
20744;DHT22;56303;52.160;-0.428;2023-03-13T00:10:51;13.00;99.90
20744;DHT22;56303;52.160;-0.428;2023-03-13T00:13:18;13.00;99.90
20744;DHT22;56303;52.160;-0.428;2023-03-13T00:15:44;12.90;99.90
20744;DHT22;56303;52.160;-0.428;2023-03-13T00:18:11;12.90;99.90
20744;DHT22;56303;52.160;-0.428;2023-03-13T00:20:38;12.80;99.90
20744;DHT22;56303;52.160;-0.428;2023-03-13T00:23:05;12.90;99.90
20744;DHT22;56303;52.160;-0.428;2023-03-13T00:25:32;12.90;99.90
20744;DHT22;56303;52.160;-0.428;2023-03-13T00:27:59;12.80;99.90
20744;DHT22;56303;52.160;-0.428;2023-03-13T00:30:25;12.90;99.90
20744;DHT22;56303;52.160;-0.428;2023-03-13T00:32:52;13.10;99.90
20744;DHT22;56303;52.160;-0.428;2023-03-13T00:35:19;13.20;99.90
20744;DHT22;56303;52.160;-0.428;2023-03-13T00:37:46;13.20;99.90
20744;DHT22;56303;52.160;-0.428;2023-03-13T00:40:13;13.10;99.90
20744;DHT22;56303;52.160;-0.428;2023-03-13T00:42:40;13.20;99.90
20744;DHT22;56303;52.160;-0.428;2023-03-13T00:45:06;13.20;99.90
20744;DHT22;56303;52.160;-0.428;2023-03-13T00:47:33;13.20;99.90
20744;DHT22;56303;52.160;-0.428;2023-03-13T00:50:00;13.30;99.90
20744;DHT22;56303;52.160;-0.428;2023-03-13T00:52:27;13.20;99.90
20744;DHT22;56303;52.160;-0.428;2023-03-13T00:54:54;13.20;99.90
20744;DHT22;56303;52.160;-0.428;2023-03-13T00:57:21;13.10;99.90
20744;DHT22;56303;52.160;-0.428;2023-03-13T00:59:47;13.00;99.90
20744;DHT22;56303;52.160;-0.428;2023-03-13T01:02:14;13.10;99.90
20744;DHT22;56303;52.160;-0.428;2023-03-13T01:04:41;13.10;99.90
20744;DHT22;56303;52.160;-0.428;2023-03-13T01:07:08;13.10;99.90
20744;DHT22;56303;52.160;-0.428;2023-03-13T01:09:35;13.00;99.90
20744;DHT22;56303;52.160;-0.428;2023-03-13T01:12:02;13.00;99.90
20744;DHT22;56303;52.160;-0.428;2023-03-13T01:14:28;12.90;99.90
20744;DHT22;56303;52.160;-0.428;2023-03-13T01:16:55;12.80;99.90
20744;DHT22;56303;52.160;-0.428;2023-03-13T01:19:22;13.00;99.90
20744;DHT22;56303;52.160;-0.428;2023-03-13T01:21:49;12.90;99.90
20744;DHT22;56303;52.160;-0.428;2023-03-13T01:24:15;13.00;99.90
20744;DHT22;56303;52.160;-0.428;2023-03-13T01:26:43;13.00;99.90
20744;DHT22;56303;52.160;-0.428;2023-03-13T01:29:09;13.10;99.90
20744;DHT22;56303;52.160;-0.428;2023-03-13T01:31:36;13.20;99.90
20744;DHT22;56303;52.160;-0.428;2023-03-13T01:34:05;13.10;99.90
20744;DHT22;56303;52.160;-0.428;2023-03-13T01:36:34;13.10;99.90
20744;DHT22;56303;52.160;-0.428;2023-03-13T01:39:01;13.20;99.90
20744;DHT22;56303;52.160;-0.428;2023-03-13T01:41:29;13.10;99.90
20744;DHT22;56303;52.160;-0.428;2023-03-13T01:43:56;13.10;99.90
20744;DHT22;56303;52.160;-0.428;2023-03-13T01:46:28;13.20;99.90
20744;DHT22;56303;52.160;-0.428;2023-03-13T01:49:11;13.00;99.90
20744;DHT22;56303;52.160;-0.428;2023-03-13T01:52:04;13.00;99.90
20744;DHT22;56303;52.160;-0.428;2023-03-13T01:54:40;13.10;99.90
20744;DHT22;56303;52.160;-0.428;2023-03-13T01:57:24;13.10;99.90
20744;DHT22;56303;52.160;-0.428;2023-03-13T01:59:59;13.10;99.90
20744;DHT22;56303;52.160;-0.428;2023-03-13T02:02:29;13.10;99.90
20744;DHT22;56303;52.160;-0.428;2023-03-13T02:05:00;13.20;99.90
20744;DHT22;56303;52.160;-0.428;2023-03-13T02:07:33;13.20;99.90
20744;DHT22;56303;52.160;-0.428;2023-03-13T02:10:02;13.20;99.90
20744;DHT22;56303;52.160;-0.428;2023-03-13T02:12:32;13.10;99.90
20744;DHT22;56303;52.160;-0.428;2023-03-13T02:15:06;13.10;99.90
20744;DHT22;56303;52.160;-0.428;2023-03-13T02:17:34;13.20;99.90
20744;DHT22;56303;52.160;-0.428;2023-03-13T02:20:02;13.10;99.90
20744;DHT22;56303;52.160;-0.428;2023-03-13T02:22:48;13.10;99.90
20744;DHT22;56303;52.160;-0.428;2023-03-13T02:28:00;13.00;99.90
20744;DHT22;56303;52.160;-0.428;2023-03-13T02:30:29;12.80;99.90
20744;DHT22;56303;52.160;-0.428;2023-03-13T02:32:56;12.80;99.90
20744;DHT22;56303;52.160;-0.428;2023-03-13T02:35:23;12.80;99.90
20744;DHT22;56303;52.160;-0.428;2023-03-13T02:37:53;12.70;99.90
20744;DHT22;56303;52.160;-0.428;2023-03-13T02:40:24;12.70;99.90
20744;DHT22;56303;52.160;-0.428;2023-03-13T02:42:53;12.70;99.90
20744;DHT22;56303;52.160;-0.428;2023-03-13T02:45:21;12.70;99.90
20744;DHT22;56303;52.160;-0.428;2023-03-13T02:47:48;12.70;99.90
20744;DHT22;56303;52.160;-0.428;2023-03-13T02:50:16;12.70;99.90
20744;DHT22;56303;52.160;-0.428;2023-03-13T02:52:49;12.70;99.90
20744;DHT22;56303;52.160;-0.428;2023-03-13T02:55:30;12.80;99.90
20744;DHT22;56303;52.160;-0.428;2023-03-13T02:57:57;12.70;99.90
20744;DHT22;56303;52.160;-0.428;2023-03-13T03:00:24;12.90;99.90
20744;DHT22;56303;52.160;-0.428;2023-03-13T03:02:53;12.90;99.90
20744;DHT22;56303;52.160;-0.428;2023-03-13T03:05:21;12.90;99.90
20744;DHT22;56303;52.160;-0.428;2023-03-13T03:07:49;12.90;99.90
20744;DHT22;56303;52.160;-0.428;2023-03-13T03:10:17;12.90;99.90
20744;DHT22;56303;52.160;-0.428;2023-03-13T03:12:44;13.00;99.90
20744;DHT22;56303;52.160;-0.428;2023-03-13T03:15:11;13.00;99.90
20744;DHT22;56303;52.160;-0.428;2023-03-13T03:17:38;13.00;99.90
20744;DHT22;56303;52.160;-0.428;2023-03-13T03:20:05;13.20;99.90
20744;DHT22;56303;52.160;-0.428;2023-03-13T03:22:39;13.10;99.90
20744;DHT22;56303;52.160;-0.428;2023-03-13T03:25:07;12.90;99.90
20744;DHT22;56303;52.160;-0.428;2023-03-13T03:27:35;12.90;99.90
20744;DHT22;56303;52.160;-0.428;2023-03-13T03:30:03;12.90;99.90
20744;DHT22;56303;52.160;-0.428;2023-03-13T03:32:31;13.00;99.90
20744;DHT22;56303;52.160;-0.428;2023-03-13T03:34:57;13.00;99.90
20744;DHT22;56303;52.160;-0.428;2023-03-13T03:37:24;13.00;99.90
20744;DHT22;56303;52.160;-0.428;2023-03-13T03:39:51;13.00;99.90
20744;DHT22;56303;52.160;-0.428;2023-03-13T03:42:18;12.90;99.90
20744;DHT22;56303;52.160;-0.428;2023-03-13T03:44:45;12.90;99.90
20744;DHT22;56303;52.160;-0.428;2023-03-13T03:47:12;12.90;99.90
20744;DHT22;56303;52.160;-0.428;2023-03-13T03:49:39;12.80;99.90
20744;DHT22;56303;52.160;-0.428;2023-03-13T03:52:06;12.80;99.90
20744;DHT22;56303;52.160;-0.428;2023-03-13T03:54:32;12.90;99.90
20744;DHT22;56303;52.160;-0.428;2023-03-13T03:57:00;12.80;99.90
20744;DHT22;56303;52.160;-0.428;2023-03-13T03:59:27;12.90;99.90
20744;DHT22;56303;52.160;-0.428;2023-03-13T04:01:54;13.00;99.90
20744;DHT22;56303;52.160;-0.428;2023-03-13T04:04:21;12.90;99.90
20744;DHT22;56303;52.160;-0.428;2023-03-13T04:06:48;12.90;99.90
20744;DHT22;56303;52.160;-0.428;2023-03-13T04:09:15;13.00;99.90
20744;DHT22;56303;52.160;-0.428;2023-03-13T04:11:42;12.90;99.90
20744;DHT22;56303;52.160;-0.428;2023-03-13T04:14:08;13.00;99.90
20744;DHT22;56303;52.160;-0.428;2023-03-13T04:16:35;13.00;99.90
20744;DHT22;56303;52.160;-0.428;2023-03-13T04:19:02;12.90;99.90
20744;DHT22;56303;52.160;-0.428;2023-03-13T04:21:29;13.00;99.90
20744;DHT22;56303;52.160;-0.428;2023-03-13T04:23:56;13.00;99.90
20744;DHT22;56303;52.160;-0.428;2023-03-13T04:26:23;13.10;99.90
20744;DHT22;56303;52.160;-0.428;2023-03-13T04:28:50;13.00;99.90
20744;DHT22;56303;52.160;-0.428;2023-03-13T04:31:17;13.00;99.90
20744;DHT22;56303;52.160;-0.428;2023-03-13T04:33:43;13.00;99.90
20744;DHT22;56303;52.160;-0.428;2023-03-13T04:36:10;13.00;99.90
20744;DHT22;56303;52.160;-0.428;2023-03-13T04:38:37;13.00;99.90
20744;DHT22;56303;52.160;-0.428;2023-03-13T04:41:05;13.00;99.90
20744;DHT22;56303;52.160;-0.428;2023-03-13T04:43:31;13.00;99.90
20744;DHT22;56303;52.160;-0.428;2023-03-13T04:45:58;12.90;99.90
20744;DHT22;56303;52.160;-0.428;2023-03-13T04:48:25;12.90;99.90
20744;DHT22;56303;52.160;-0.428;2023-03-13T04:50:52;12.90;99.90
20744;DHT22;56303;52.160;-0.428;2023-03-13T04:53:18;12.90;99.90
20744;DHT22;56303;52.160;-0.428;2023-03-13T04:55:46;12.80;99.90
20744;DHT22;56303;52.160;-0.428;2023-03-13T04:58:14;12.80;99.90
20744;DHT22;56303;52.160;-0.428;2023-03-13T05:00:41;12.90;99.90
20744;DHT22;56303;52.160;-0.428;2023-03-13T05:03:07;12.80;99.90
20744;DHT22;56303;52.160;-0.428;2023-03-13T05:05:34;12.80;99.90
20744;DHT22;56303;52.160;-0.428;2023-03-13T05:08:01;12.80;99.90
20744;DHT22;56303;52.160;-0.428;2023-03-13T05:10:29;12.80;99.90
20744;DHT22;56303;52.160;-0.428;2023-03-13T05:12:55;12.80;99.90
20744;DHT22;56303;52.160;-0.428;2023-03-13T05:15:22;12.80;99.90
20744;DHT22;56303;52.160;-0.428;2023-03-13T05:17:49;12.70;99.90
20744;DHT22;56303;52.160;-0.428;2023-03-13T05:20:17;12.80;99.90
20744;DHT22;56303;52.160;-0.428;2023-03-13T05:22:43;12.80;99.90
20744;DHT22;56303;52.160;-0.428;2023-03-13T05:25:10;12.70;99.90
20744;DHT22;56303;52.160;-0.428;2023-03-13T05:27:37;12.80;99.90
20744;DHT22;56303;52.160;-0.428;2023-03-13T05:30:04;12.70;99.90
20744;DHT22;56303;52.160;-0.428;2023-03-13T05:32:31;12.70;99.90
20744;DHT22;56303;52.160;-0.428;2023-03-13T05:34:58;12.70;99.90
20744;DHT22;56303;52.160;-0.428;2023-03-13T05:37:25;12.80;99.90
20744;DHT22;56303;52.160;-0.428;2023-03-13T05:39:51;12.70;99.90
20744;DHT22;56303;52.160;-0.428;2023-03-13T05:42:18;12.70;99.90
20744;DHT22;56303;52.160;-0.428;2023-03-13T05:44:45;12.70;99.90
20744;DHT22;56303;52.160;-0.428;2023-03-13T05:47:12;12.70;99.90
20744;DHT22;56303;52.160;-0.428;2023-03-13T05:49:38;12.70;99.90
20744;DHT22;56303;52.160;-0.428;2023-03-13T05:52:05;12.60;99.90
20744;DHT22;56303;52.160;-0.428;2023-03-13T05:54:32;12.70;99.90
20744;DHT22;56303;52.160;-0.428;2023-03-13T05:56:59;12.70;99.90
20744;DHT22;56303;52.160;-0.428;2023-03-13T05:59:25;12.60;99.90
20744;DHT22;56303;52.160;-0.428;2023-03-13T06:01:52;12.70;99.90
20744;DHT22;56303;52.160;-0.428;2023-03-13T06:04:19;12.70;99.90
20744;DHT22;56303;52.160;-0.428;2023-03-13T06:06:46;12.70;99.90
20744;DHT22;56303;52.160;-0.428;2023-03-13T06:09:13;12.60;99.90
20744;DHT22;56303;52.160;-0.428;2023-03-13T06:11:40;12.60;99.90
20744;DHT22;56303;52.160;-0.428;2023-03-13T06:14:07;12.70;99.90
20744;DHT22;56303;52.160;-0.428;2023-03-13T06:16:34;12.80;99.90
20744;DHT22;56303;52.160;-0.428;2023-03-13T06:19:01;12.70;99.90
20744;DHT22;56303;52.160;-0.428;2023-03-13T06:21:28;12.80;99.90
20744;DHT22;56303;52.160;-0.428;2023-03-13T06:23:55;12.80;99.90
20744;DHT22;56303;52.160;-0.428;2023-03-13T06:26:21;12.70;99.90
20744;DHT22;56303;52.160;-0.428;2023-03-13T06:28:50;12.80;99.90
20744;DHT22;56303;52.160;-0.428;2023-03-13T06:31:18;12.60;99.90
20744;DHT22;56303;52.160;-0.428;2023-03-13T06:33:44;12.70;99.90
20744;DHT22;56303;52.160;-0.428;2023-03-13T06:36:12;12.60;99.90
20744;DHT22;56303;52.160;-0.428;2023-03-13T06:38:38;12.60;99.90
20744;DHT22;56303;52.160;-0.428;2023-03-13T06:41:06;12.70;99.90
20744;DHT22;56303;52.160;-0.428;2023-03-13T06:43:33;12.60;99.90
20744;DHT22;56303;52.160;-0.428;2023-03-13T06:46:04;12.60;99.90
20744;DHT22;56303;52.160;-0.428;2023-03-13T06:48:31;12.70;99.90
20744;DHT22;56303;52.160;-0.428;2023-03-13T06:50:57;12.50;99.90
20744;DHT22;56303;52.160;-0.428;2023-03-13T06:53:24;12.50;99.90
20744;DHT22;56303;52.160;-0.428;2023-03-13T06:55:51;12.50;99.90
20744;DHT22;56303;52.160;-0.428;2023-03-13T06:58:18;12.50;99.90
20744;DHT22;56303;52.160;-0.428;2023-03-13T07:01:04;12.50;99.90
20744;DHT22;56303;52.160;-0.428;2023-03-13T07:03:31;12.50;99.90
20744;DHT22;56303;52.160;-0.428;2023-03-13T07:05:58;12.60;99.90
20744;DHT22;56303;52.160;-0.428;2023-03-13T07:08:26;12.50;99.90
20744;DHT22;56303;52.160;-0.428;2023-03-13T07:10:57;12.60;99.90
20744;DHT22;56303;52.160;-0.428;2023-03-13T07:13:24;12.60;99.90
20744;DHT22;56303;52.160;-0.428;2023-03-13T07:15:51;12.50;99.90
20744;DHT22;56303;52.160;-0.428;2023-03-13T07:18:18;12.70;99.90
20744;DHT22;56303;52.160;-0.428;2023-03-13T07:20:51;12.70;99.90
20744;DHT22;56303;52.160;-0.428;2023-03-13T07:23:20;12.60;99.90
20744;DHT22;56303;52.160;-0.428;2023-03-13T07:25:55;12.70;99.90
20744;DHT22;56303;52.160;-0.428;2023-03-13T07:28:22;12.80;99.90
20744;DHT22;56303;52.160;-0.428;2023-03-13T07:30:50;12.90;99.90
20744;DHT22;56303;52.160;-0.428;2023-03-13T07:33:17;12.80;99.90
20744;DHT22;56303;52.160;-0.428;2023-03-13T07:35:51;12.90;99.90
20744;DHT22;56303;52.160;-0.428;2023-03-13T07:38:18;12.80;99.90
20744;DHT22;56303;52.160;-0.428;2023-03-13T07:40:54;12.80;99.90
20744;DHT22;56303;52.160;-0.428;2023-03-13T07:43:22;12.80;99.90
20744;DHT22;56303;52.160;-0.428;2023-03-13T07:45:54;12.80;99.90
20744;DHT22;56303;52.160;-0.428;2023-03-13T07:48:22;12.80;99.90
20744;DHT22;56303;52.160;-0.428;2023-03-13T07:50:50;12.90;99.90
20744;DHT22;56303;52.160;-0.428;2023-03-13T07:53:17;12.80;99.90
20744;DHT22;56303;52.160;-0.428;2023-03-13T07:56:02;12.90;99.90
20744;DHT22;56303;52.160;-0.428;2023-03-13T07:58:31;13.00;99.90
20744;DHT22;56303;52.160;-0.428;2023-03-13T08:00:59;13.00;99.90
20744;DHT22;56303;52.160;-0.428;2023-03-13T08:03:26;13.00;99.90
20744;DHT22;56303;52.160;-0.428;2023-03-13T08:05:59;13.00;99.90
20744;DHT22;56303;52.160;-0.428;2023-03-13T08:08:26;13.10;99.90
20744;DHT22;56303;52.160;-0.428;2023-03-13T08:11:01;13.00;99.90
20744;DHT22;56303;52.160;-0.428;2023-03-13T08:13:30;13.00;99.90
20744;DHT22;56303;52.160;-0.428;2023-03-13T08:16:21;13.10;99.90
20744;DHT22;56303;52.160;-0.428;2023-03-13T08:18:50;13.20;99.90
20744;DHT22;56303;52.160;-0.428;2023-03-13T08:21:20;13.00;99.90
20744;DHT22;56303;52.160;-0.428;2023-03-13T08:23:47;13.20;99.90
20744;DHT22;56303;52.160;-0.428;2023-03-13T08:26:16;13.30;99.90
20744;DHT22;56303;52.160;-0.428;2023-03-13T08:28:45;13.30;99.90
20744;DHT22;56303;52.160;-0.428;2023-03-13T08:31:22;13.20;99.90
20744;DHT22;56303;52.160;-0.428;2023-03-13T08:33:49;13.20;99.90
20744;DHT22;56303;52.160;-0.428;2023-03-13T08:36:19;13.10;99.90
20744;DHT22;56303;52.160;-0.428;2023-03-13T08:38:47;13.30;99.90
20744;DHT22;56303;52.160;-0.428;2023-03-13T08:41:17;13.60;99.90
20744;DHT22;56303;52.160;-0.428;2023-03-13T08:43:45;13.50;99.90
20744;DHT22;56303;52.160;-0.428;2023-03-13T08:46:12;13.50;99.90
20744;DHT22;56303;52.160;-0.428;2023-03-13T08:48:40;13.50;99.90
20744;DHT22;56303;52.160;-0.428;2023-03-13T08:51:12;13.60;99.90
20744;DHT22;56303;52.160;-0.428;2023-03-13T08:53:41;13.50;99.90
20744;DHT22;56303;52.160;-0.428;2023-03-13T08:56:09;13.60;99.90
20744;DHT22;56303;52.160;-0.428;2023-03-13T08:58:37;13.50;99.90
20744;DHT22;56303;52.160;-0.428;2023-03-13T09:01:06;13.60;99.90
20744;DHT22;56303;52.160;-0.428;2023-03-13T09:03:37;13.80;99.90
20744;DHT22;56303;52.160;-0.428;2023-03-13T09:06:12;13.80;99.90
20744;DHT22;56303;52.160;-0.428;2023-03-13T09:08:40;13.70;99.90
20744;DHT22;56303;52.160;-0.428;2023-03-13T09:11:12;13.80;99.90
20744;DHT22;56303;52.160;-0.428;2023-03-13T09:13:42;13.70;99.90
20744;DHT22;56303;52.160;-0.428;2023-03-13T09:16:12;14.00;99.90
20744;DHT22;56303;52.160;-0.428;2023-03-13T09:18:42;13.80;99.90
20744;DHT22;56303;52.160;-0.428;2023-03-13T09:21:32;13.60;99.90
20744;DHT22;56303;52.160;-0.428;2023-03-13T09:24:00;13.60;99.90
20744;DHT22;56303;52.160;-0.428;2023-03-13T09:26:27;13.60;99.90
20744;DHT22;56303;52.160;-0.428;2023-03-13T09:28:54;13.60;99.90
20744;DHT22;56303;52.160;-0.428;2023-03-13T09:31:32;13.50;99.90
20744;DHT22;56303;52.160;-0.428;2023-03-13T09:33:59;13.70;99.90
20744;DHT22;56303;52.160;-0.428;2023-03-13T09:36:27;13.70;99.90
20744;DHT22;56303;52.160;-0.428;2023-03-13T09:38:56;13.90;99.90
20744;DHT22;56303;52.160;-0.428;2023-03-13T09:48:56;14.20;99.90
20744;DHT22;56303;52.160;-0.428;2023-03-13T09:51:28;14.00;99.90
20744;DHT22;56303;52.160;-0.428;2023-03-13T09:54:17;13.80;99.90
20744;DHT22;56303;52.160;-0.428;2023-03-13T09:59:28;13.80;99.90
20744;DHT22;56303;52.160;-0.428;2023-03-13T10:01:57;14.00;99.90
20744;DHT22;56303;52.160;-0.428;2023-03-13T10:04:41;14.10;99.90
20744;DHT22;56303;52.160;-0.428;2023-03-13T10:07:10;14.00;99.90
20744;DHT22;56303;52.160;-0.428;2023-03-13T10:09:37;13.90;99.90
20744;DHT22;56303;52.160;-0.428;2023-03-13T10:17:35;13.80;99.90
20744;DHT22;56303;52.160;-0.428;2023-03-13T10:20:28;13.80;99.90
20744;DHT22;56303;52.160;-0.428;2023-03-13T10:23:14;13.90;99.90
20744;DHT22;56303;52.160;-0.428;2023-03-13T10:25:41;14.00;99.90
20744;DHT22;56303;52.160;-0.428;2023-03-13T10:28:13;13.80;99.90
20744;DHT22;56303;52.160;-0.428;2023-03-13T10:30:46;13.60;99.90
20744;DHT22;56303;52.160;-0.428;2023-03-13T10:33:25;13.50;99.90
20744;DHT22;56303;52.160;-0.428;2023-03-13T10:36:07;13.30;99.90
20744;DHT22;56303;52.160;-0.428;2023-03-13T10:41:32;13.30;99.90
20744;DHT22;56303;52.160;-0.428;2023-03-13T10:44:11;13.20;99.90
20744;DHT22;56303;52.160;-0.428;2023-03-13T10:46:42;13.30;99.90
20744;DHT22;56303;52.160;-0.428;2023-03-13T10:49:29;13.20;99.90
20744;DHT22;56303;52.160;-0.428;2023-03-13T10:52:02;13.40;99.90
20744;DHT22;56303;52.160;-0.428;2023-03-13T10:54:32;13.90;99.90
20744;DHT22;56303;52.160;-0.428;2023-03-13T10:59:47;13.80;99.90
20744;DHT22;56303;52.160;-0.428;2023-03-13T11:05:37;13.90;99.90
20744;DHT22;56303;52.160;-0.428;2023-03-13T11:08:27;14.00;99.90
20744;DHT22;56303;52.160;-0.428;2023-03-13T11:10:59;13.80;99.90
20744;DHT22;56303;52.160;-0.428;2023-03-13T11:13:38;13.80;99.90
20744;DHT22;56303;52.160;-0.428;2023-03-13T11:16:22;13.90;99.90
20744;DHT22;56303;52.160;-0.428;2023-03-13T11:30:52;14.20;99.90
20744;DHT22;56303;52.160;-0.428;2023-03-13T11:33:04;14.40;99.90
20744;DHT22;56303;52.160;-0.428;2023-03-13T11:35:57;14.50;99.90
20744;DHT22;56303;52.160;-0.428;2023-03-13T11:38:39;14.60;99.90
20744;DHT22;56303;52.160;-0.428;2023-03-13T11:46:21;14.40;99.90
20744;DHT22;56303;52.160;-0.428;2023-03-13T11:51:55;14.70;99.90
20744;DHT22;56303;52.160;-0.428;2023-03-13T11:58:11;14.60;99.90
20744;DHT22;56303;52.160;-0.428;2023-03-13T12:00:34;14.50;99.90
20744;DHT22;56303;52.160;-0.428;2023-03-13T12:03:17;14.60;99.90
20744;DHT22;56303;52.160;-0.428;2023-03-13T12:05:52;14.40;99.90
20744;DHT22;56303;52.160;-0.428;2023-03-13T12:08:20;14.70;99.90
20744;DHT22;56303;52.160;-0.428;2023-03-13T12:16:22;15.20;99.90
20744;DHT22;56303;52.160;-0.428;2023-03-13T12:18:52;15.20;99.90
20744;DHT22;56303;52.160;-0.428;2023-03-13T12:21:28;14.60;99.90
20744;DHT22;56303;52.160;-0.428;2023-03-13T12:24:06;14.70;99.90
20744;DHT22;56303;52.160;-0.428;2023-03-13T12:26:44;14.50;99.90
20744;DHT22;56303;52.160;-0.428;2023-03-13T12:29:27;14.80;99.90
20744;DHT22;56303;52.160;-0.428;2023-03-13T12:32:03;14.70;99.90
20744;DHT22;56303;52.160;-0.428;2023-03-13T12:40:03;14.80;99.90
20744;DHT22;56303;52.160;-0.428;2023-03-13T12:42:38;15.00;99.90
20744;DHT22;56303;52.160;-0.428;2023-03-13T12:45:09;15.10;99.90
20744;DHT22;56303;52.160;-0.428;2023-03-13T12:50:33;15.40;99.90
20744;DHT22;56303;52.160;-0.428;2023-03-13T12:58:51;15.90;99.90
20744;DHT22;56303;52.160;-0.428;2023-03-13T13:01:31;16.20;99.90
20744;DHT22;56303;52.160;-0.428;2023-03-13T13:04:13;15.60;99.90
20744;DHT22;56303;52.160;-0.428;2023-03-13T13:12:37;16.00;99.90
20744;DHT22;56303;52.160;-0.428;2023-03-13T13:22:56;15.70;99.90
20744;DHT22;56303;52.160;-0.428;2023-03-13T13:25:41;16.10;99.90
20744;DHT22;56303;52.160;-0.428;2023-03-13T13:30:48;16.70;99.90
20744;DHT22;56303;52.160;-0.428;2023-03-13T13:36:26;16.20;99.90
20744;DHT22;56303;52.160;-0.428;2023-03-13T13:38:54;16.60;99.90
20744;DHT22;56303;52.160;-0.428;2023-03-13T13:41:26;16.60;99.90
20744;DHT22;56303;52.160;-0.428;2023-03-13T13:44:20;16.70;99.90
20744;DHT22;56303;52.160;-0.428;2023-03-13T13:46:47;16.40;99.90
20744;DHT22;56303;52.160;-0.428;2023-03-13T13:49:32;16.70;99.90
20744;DHT22;56303;52.160;-0.428;2023-03-13T13:54:54;17.40;99.90
20744;DHT22;56303;52.160;-0.428;2023-03-13T13:57:26;16.70;99.90
20744;DHT22;56303;52.160;-0.428;2023-03-13T14:00:13;16.60;99.90
20744;DHT22;56303;52.160;-0.428;2023-03-13T14:02:55;17.00;99.90
20744;DHT22;56303;52.160;-0.428;2023-03-13T14:05:25;16.70;99.90
20744;DHT22;56303;52.160;-0.428;2023-03-13T14:08:23;16.70;99.90
20744;DHT22;56303;52.160;-0.428;2023-03-13T14:16:46;17.00;99.90
20744;DHT22;56303;52.160;-0.428;2023-03-13T14:19:27;16.40;99.90
20744;DHT22;56303;52.160;-0.428;2023-03-13T14:22:01;16.60;99.90
20744;DHT22;56303;52.160;-0.428;2023-03-13T14:24:28;16.50;99.90
20744;DHT22;56303;52.160;-0.428;2023-03-13T14:26:55;15.10;99.90
20744;DHT22;56303;52.160;-0.428;2023-03-13T14:29:22;15.30;99.90
20744;DHT22;56303;52.160;-0.428;2023-03-13T14:31:57;15.50;99.90
20744;DHT22;56303;52.160;-0.428;2023-03-13T14:34:25;15.60;99.90
20744;DHT22;56303;52.160;-0.428;2023-03-13T14:36:55;14.80;99.90
20744;DHT22;56303;52.160;-0.428;2023-03-13T14:39:44;14.70;99.90
20744;DHT22;56303;52.160;-0.428;2023-03-13T14:42:13;14.40;99.90
20744;DHT22;56303;52.160;-0.428;2023-03-13T14:44:40;14.00;99.90
20744;DHT22;56303;52.160;-0.428;2023-03-13T14:47:26;13.90;99.90
20744;DHT22;56303;52.160;-0.428;2023-03-13T14:50:00;14.00;99.90
20744;DHT22;56303;52.160;-0.428;2023-03-13T14:52:32;14.20;99.90
20744;DHT22;56303;52.160;-0.428;2023-03-13T14:55:02;14.70;99.90
20744;DHT22;56303;52.160;-0.428;2023-03-13T14:57:31;14.50;99.90
20744;DHT22;56303;52.160;-0.428;2023-03-13T15:00:31;14.30;99.90
20744;DHT22;56303;52.160;-0.428;2023-03-13T15:05:44;14.70;99.90
20744;DHT22;56303;52.160;-0.428;2023-03-13T15:08:19;14.50;99.90
20744;DHT22;56303;52.160;-0.428;2023-03-13T15:10:47;14.90;99.90
20744;DHT22;56303;52.160;-0.428;2023-03-13T15:13:35;15.10;99.90
20744;DHT22;56303;52.160;-0.428;2023-03-13T15:16:16;14.60;99.90
20744;DHT22;56303;52.160;-0.428;2023-03-13T15:18:46;14.50;99.90
20744;DHT22;56303;52.160;-0.428;2023-03-13T15:23:48;14.80;99.90
20744;DHT22;56303;52.160;-0.428;2023-03-13T15:26:15;14.70;99.90
20744;DHT22;56303;52.160;-0.428;2023-03-13T15:28:42;14.30;99.90
20744;DHT22;56303;52.160;-0.428;2023-03-13T15:31:11;14.30;99.90
20744;DHT22;56303;52.160;-0.428;2023-03-13T15:33:40;14.10;99.90
20744;DHT22;56303;52.160;-0.428;2023-03-13T15:36:07;13.80;99.90
20744;DHT22;56303;52.160;-0.428;2023-03-13T15:38:35;13.80;99.90
20744;DHT22;56303;52.160;-0.428;2023-03-13T15:41:02;14.00;99.90
20744;DHT22;56303;52.160;-0.428;2023-03-13T15:43:32;14.10;99.90
20744;DHT22;56303;52.160;-0.428;2023-03-13T15:46:02;14.30;99.90
20744;DHT22;56303;52.160;-0.428;2023-03-13T15:48:31;14.10;99.90
20744;DHT22;56303;52.160;-0.428;2023-03-13T15:51:00;14.00;99.90
20744;DHT22;56303;52.160;-0.428;2023-03-13T15:53:31;13.90;99.90
20744;DHT22;56303;52.160;-0.428;2023-03-13T15:56:00;14.10;99.90
20744;DHT22;56303;52.160;-0.428;2023-03-13T15:58:28;14.20;99.90
20744;DHT22;56303;52.160;-0.428;2023-03-13T16:00:55;14.00;99.90
20744;DHT22;56303;52.160;-0.428;2023-03-13T16:03:25;13.90;99.90
20744;DHT22;56303;52.160;-0.428;2023-03-13T16:05:53;13.70;99.90
20744;DHT22;56303;52.160;-0.428;2023-03-13T16:08:22;13.80;99.90
20744;DHT22;56303;52.160;-0.428;2023-03-13T16:11:05;13.90;99.90
20744;DHT22;56303;52.160;-0.428;2023-03-13T16:13:32;13.80;99.90
20744;DHT22;56303;52.160;-0.428;2023-03-13T16:15:59;13.80;99.90
20744;DHT22;56303;52.160;-0.428;2023-03-13T16:18:26;13.90;99.90
20744;DHT22;56303;52.160;-0.428;2023-03-13T16:20:53;14.00;99.90
20744;DHT22;56303;52.160;-0.428;2023-03-13T16:23:20;13.90;99.90
20744;DHT22;56303;52.160;-0.428;2023-03-13T16:25:47;14.00;99.90
20744;DHT22;56303;52.160;-0.428;2023-03-13T16:28:15;14.10;99.90
20744;DHT22;56303;52.160;-0.428;2023-03-13T16:30:42;14.10;99.90
20744;DHT22;56303;52.160;-0.428;2023-03-13T16:33:10;14.30;99.90
20744;DHT22;56303;52.160;-0.428;2023-03-13T16:35:38;14.30;99.90
20744;DHT22;56303;52.160;-0.428;2023-03-13T16:38:05;14.30;99.90
20744;DHT22;56303;52.160;-0.428;2023-03-13T16:40:34;14.40;99.90
20744;DHT22;56303;52.160;-0.428;2023-03-13T16:43:01;14.10;99.90
20744;DHT22;56303;52.160;-0.428;2023-03-13T16:45:28;14.20;99.90
20744;DHT22;56303;52.160;-0.428;2023-03-13T16:47:55;14.00;99.90
20744;DHT22;56303;52.160;-0.428;2023-03-13T16:50:23;13.90;99.90
20744;DHT22;56303;52.160;-0.428;2023-03-13T16:52:51;13.70;99.90
20744;DHT22;56303;52.160;-0.428;2023-03-13T16:55:19;13.70;99.90
20744;DHT22;56303;52.160;-0.428;2023-03-13T16:57:46;13.60;99.90
20744;DHT22;56303;52.160;-0.428;2023-03-13T17:00:18;13.80;99.90
20744;DHT22;56303;52.160;-0.428;2023-03-13T17:02:46;13.70;99.90
20744;DHT22;56303;52.160;-0.428;2023-03-13T17:05:13;13.80;99.90
20744;DHT22;56303;52.160;-0.428;2023-03-13T17:07:46;13.60;99.90
20744;DHT22;56303;52.160;-0.428;2023-03-13T17:10:28;13.70;99.90
20744;DHT22;56303;52.160;-0.428;2023-03-13T17:12:55;13.50;99.90
20744;DHT22;56303;52.160;-0.428;2023-03-13T17:15:24;13.50;99.90
20744;DHT22;56303;52.160;-0.428;2023-03-13T17:17:52;13.60;99.90